createdAt,value
2023-03-27T00:02:03.161Z,23.03
2023-03-27T00:04:34.117Z,23.06
2023-03-27T00:07:35.948Z,23.05
2023-03-27T00:10:08.217Z,23.06
2023-03-27T00:12:40.477Z,23.08
2023-03-27T00:15:14.020Z,23.08
2023-03-27T00:17:45.723Z,23.08
2023-03-27T00:20:28.036Z,23.09
2023-03-27T00:22:58.175Z,23.09
2023-03-27T00:25:29.885Z,23.09
2023-03-27T00:28:00.140Z,23.10
2023-03-27T00:30:30.830Z,23.10
2023-03-27T00:33:01.184Z,23.10
2023-03-27T00:35:36.252Z,23.10
2023-03-27T00:38:06.439Z,23.10
2023-03-27T00:40:36.529Z,23.00
2023-03-27T00:43:23.173Z,23.10
2023-03-27T00:45:55.761Z,22.94
2023-03-27T00:48:26.142Z,23.10
2023-03-27T00:51:07.244Z,23.10
2023-03-27T00:53:39.759Z,23.09
2023-03-27T00:56:11.229Z,23.09
2023-03-27T00:58:55.394Z,23.04
2023-03-27T01:01:25.527Z,23.07
2023-03-27T01:04:15.839Z,23.06
2023-03-27T01:06:46.151Z,23.05
2023-03-27T01:09:20.349Z,23.04
2023-03-27T01:15:44.514Z,23.01
2023-03-27T01:18:55.668Z,23.00
2023-03-27T01:21:50.599Z,22.99
2023-03-27T01:24:26.498Z,22.98
2023-03-27T01:27:23.665Z,22.97
2023-03-27T01:33:30.598Z,22.95
2023-03-27T01:36:25.954Z,22.95
2023-03-27T01:39:19.204Z,22.93
2023-03-27T01:42:23.454Z,22.91
2023-03-27T01:45:20.989Z,22.90
2023-03-27T01:48:08.798Z,22.90
2023-03-27T01:50:58.065Z,22.88
2023-03-27T01:53:49.529Z,22.87
2023-03-27T01:59:21.215Z,22.85
2023-03-27T02:02:03.725Z,22.83
2023-03-27T02:04:49.955Z,22.83
2023-03-27T02:07:36.296Z,22.81
2023-03-27T02:10:18.575Z,22.68
2023-03-27T02:12:56.477Z,22.69
2023-03-27T02:15:33.254Z,22.77
2023-03-27T02:18:12.294Z,22.69
2023-03-27T02:21:25.961Z,22.75
2023-03-27T02:24:32.051Z,22.74
2023-03-27T02:27:32.149Z,22.73
2023-03-27T02:30:45.220Z,22.53
2023-03-27T02:33:40.831Z,22.53
2023-03-27T02:36:40.801Z,22.68
2023-03-27T02:42:38.772Z,22.71
2023-03-27T02:45:38.596Z,22.66
2023-03-27T02:48:30.475Z,22.64
2023-03-27T02:54:46.587Z,22.66
2023-03-27T02:57:31.176Z,22.60
2023-03-27T03:09:41.376Z,22.55
2023-03-27T03:12:21.101Z,22.53
2023-03-27T03:15:21.838Z,22.53
2023-03-27T03:18:10.171Z,22.52
2023-03-27T03:23:36.232Z,22.48
2023-03-27T03:26:07.507Z,22.47
2023-03-27T03:28:37.663Z,22.47
2023-03-27T03:31:11.318Z,22.45
2023-03-27T03:34:28.731Z,22.43
2023-03-27T03:37:05.287Z,22.42
2023-03-27T03:39:45.215Z,22.42
2023-03-27T03:42:24.110Z,22.39
2023-03-27T03:45:36.062Z,22.38
2023-03-27T03:48:52.104Z,22.34
2023-03-27T03:51:33.920Z,22.36
2023-03-27T04:00:36.508Z,22.30
2023-03-27T04:03:42.914Z,22.29
2023-03-27T04:06:36.489Z,22.28
2023-03-27T04:09:30.072Z,22.26
2023-03-27T04:12:46.538Z,22.25
2023-03-27T04:18:42.128Z,22.21
2023-03-27T04:21:57.198Z,22.19
2023-03-27T04:24:34.300Z,22.18
2023-03-27T04:27:37.371Z,22.16
2023-03-27T04:30:34.696Z,22.13
2023-03-27T04:33:36.085Z,22.11
2023-03-27T04:36:22.167Z,22.09
2023-03-27T04:45:36.664Z,22.04
2023-03-27T04:51:21.584Z,21.98
2023-03-27T04:59:50.570Z,21.94
2023-03-27T05:02:20.958Z,21.92
2023-03-27T05:05:14.244Z,21.90
2023-03-27T05:07:33.323Z,21.88
2023-03-27T05:10:03.556Z,21.87
2023-03-27T05:13:03.798Z,21.82
2023-03-27T05:19:07.075Z,21.83
2023-03-27T05:22:07.545Z,21.80
2023-03-27T05:28:28.970Z,21.76
2023-03-27T05:31:11.381Z,21.74
2023-03-27T05:33:49.999Z,21.70
2023-03-27T05:37:17.177Z,21.68
2023-03-27T05:39:58.759Z,21.66
2023-03-27T05:43:21.171Z,21.64
2023-03-27T05:54:38.593Z,21.57
2023-03-27T05:57:36.093Z,21.54
2023-03-27T06:03:02.284Z,21.49
2023-03-27T06:05:42.464Z,21.48
2023-03-27T06:08:17.492Z,21.44
2023-03-27T06:10:49.809Z,21.43
2023-03-27T06:16:27.112Z,21.44
2023-03-27T06:19:12.683Z,21.38
2023-03-27T06:22:04.393Z,21.36
2023-03-27T06:24:52.478Z,21.33
2023-03-27T06:28:14.989Z,21.33
2023-03-27T06:31:06.219Z,21.31
2023-03-27T06:34:00.759Z,21.28
2023-03-27T06:37:06.840Z,21.25
2023-03-27T06:43:29.005Z,21.22
2023-03-27T06:46:45.940Z,21.18
2023-03-27T06:49:20.053Z,21.15
2023-03-27T06:55:18.896Z,21.12
2023-03-27T06:58:34.989Z,21.10
2023-03-27T07:01:36.227Z,21.09
2023-03-27T07:07:40.340Z,21.05
2023-03-27T07:10:34.778Z,21.02
2023-03-27T07:16:30.901Z,20.98
2023-03-27T07:19:04.336Z,20.96
2023-03-27T07:27:14.445Z,20.88
2023-03-27T07:29:46.684Z,20.88
2023-03-27T07:32:33.992Z,20.86
2023-03-27T07:34:56.063Z,20.85
2023-03-27T07:37:38.395Z,20.84
2023-03-27T07:43:29.006Z,20.81
2023-03-27T07:46:07.989Z,20.80
2023-03-27T07:55:21.508Z,20.74
2023-03-27T07:58:28.227Z,20.72
2023-03-27T08:01:22.092Z,20.70
2023-03-27T08:04:30.749Z,20.67
2023-03-27T08:07:13.920Z,20.65
2023-03-27T08:10:54.751Z,20.64
2023-03-27T08:13:33.495Z,20.63
2023-03-27T08:16:16.432Z,20.59
2023-03-27T08:19:22.471Z,20.56
2023-03-27T08:22:36.929Z,20.55
2023-03-27T08:25:29.436Z,20.54
2023-03-27T08:28:22.189Z,20.53
2023-03-27T08:31:16.500Z,20.50
2023-03-27T08:37:10.951Z,20.46
2023-03-27T08:40:19.881Z,20.39
2023-03-27T08:43:29.059Z,20.42
2023-03-27T08:46:28.073Z,20.41
2023-03-27T08:58:27.316Z,20.35
2023-03-27T09:01:57.938Z,20.30
2023-03-27T09:08:12.300Z,20.30
2023-03-27T09:11:18.519Z,20.24
2023-03-27T09:13:50.091Z,20.22
2023-03-27T09:16:54.644Z,20.19
2023-03-27T09:19:43.988Z,20.17
2023-03-27T09:22:32.981Z,20.15
2023-03-27T09:25:39.145Z,20.13
2023-03-27T09:28:53.010Z,20.11
2023-03-27T09:32:04.943Z,20.09
2023-03-27T09:34:53.073Z,20.06
2023-03-27T09:37:49.403Z,20.05
2023-03-27T09:40:47.508Z,20.03
2023-03-27T09:43:41.963Z,20.01
2023-03-27T09:47:00.506Z,20.00
2023-03-27T09:49:52.059Z,19.97
2023-03-27T09:52:57.526Z,19.95
2023-03-27T09:55:40.611Z,19.83
2023-03-27T09:58:52.020Z,19.89
2023-03-27T10:01:51.381Z,19.88
2023-03-27T10:04:35.651Z,19.88
2023-03-27T10:10:23.919Z,19.83
2023-03-27T10:17:08.301Z,19.79
2023-03-27T10:19:49.115Z,19.78
2023-03-27T10:23:20.347Z,19.70
2023-03-27T10:26:06.070Z,19.73
2023-03-27T10:31:54.434Z,19.68
2023-03-27T10:35:03.214Z,19.68
2023-03-27T10:38:09.859Z,19.66
2023-03-27T10:40:56.538Z,19.50
2023-03-27T10:44:05.120Z,19.63
2023-03-27T10:50:20.300Z,19.65
2023-03-27T10:53:23.300Z,19.62
2023-03-27T10:56:17.534Z,19.64
2023-03-27T10:59:15.904Z,19.66
2023-03-27T11:02:10.781Z,19.66
2023-03-27T11:08:03.811Z,19.74
2023-03-27T11:13:54.933Z,19.72
2023-03-27T11:16:42.643Z,19.74
2023-03-27T11:19:58.031Z,19.74
2023-03-27T11:36:22.081Z,20.07
2023-03-27T11:39:20.592Z,20.06
2023-03-27T11:41:56.747Z,20.09
2023-03-27T11:47:41.712Z,20.21
2023-03-27T11:50:28.192Z,20.20
2023-03-27T11:53:25.082Z,20.23
2023-03-27T11:56:22.919Z,20.27
2023-03-27T11:59:25.803Z,20.31
2023-03-27T12:02:07.963Z,20.35
2023-03-27T12:05:08.072Z,20.37
2023-03-27T12:08:03.346Z,20.43
2023-03-27T12:10:57.495Z,20.46
2023-03-27T12:16:56.861Z,20.54
2023-03-27T12:20:12.919Z,20.55
2023-03-27T12:26:12.859Z,20.49
2023-03-27T12:29:25.988Z,20.66
2023-03-27T12:32:20.522Z,20.73
2023-03-27T12:35:21.387Z,20.78
2023-03-27T12:38:30.355Z,20.84
2023-03-27T12:41:40.998Z,20.89
2023-03-27T12:44:35.108Z,20.93
2023-03-27T12:53:34.576Z,21.06
2023-03-27T12:56:30.353Z,21.09
2023-03-27T13:02:57.982Z,21.18
2023-03-27T13:05:41.881Z,21.20
2023-03-27T13:08:54.354Z,21.23
2023-03-27T13:11:51.250Z,21.25
2023-03-27T13:14:30.823Z,21.28
2023-03-27T13:20:49.752Z,21.36
2023-03-27T13:23:47.204Z,21.36
2023-03-27T13:26:28.501Z,21.39
2023-03-27T13:29:30.822Z,21.37
2023-03-27T13:32:41.056Z,21.43
2023-03-27T13:35:46.175Z,21.46
2023-03-27T13:38:31.329Z,21.51
2023-03-27T13:41:20.254Z,21.55
2023-03-27T13:47:41.555Z,21.59
2023-03-27T13:50:44.026Z,21.62
2023-03-27T13:53:34.007Z,21.65
2023-03-27T13:56:28.342Z,21.66
2023-03-27T14:02:27.667Z,21.74
2023-03-27T14:05:37.020Z,21.75
2023-03-27T14:08:35.262Z,21.71
2023-03-27T14:11:39.378Z,21.76
2023-03-27T14:14:28.335Z,21.75
2023-03-27T14:21:00.066Z,21.83
2023-03-27T14:23:51.302Z,21.79
2023-03-27T14:26:32.957Z,21.79
2023-03-27T14:29:21.083Z,21.77
2023-03-27T14:32:16.721Z,21.76
2023-03-27T14:38:13.202Z,21.74
2023-03-27T14:41:36.338Z,21.76
2023-03-27T14:50:54.064Z,21.79
2023-03-27T14:53:49.738Z,21.73
2023-03-27T14:56:48.061Z,21.58
2023-03-27T15:00:08.392Z,21.71
2023-03-27T15:02:38.514Z,21.71
2023-03-27T15:05:47.595Z,21.70
2023-03-27T15:11:53.445Z,21.73
2023-03-27T15:14:47.596Z,21.69
2023-03-27T15:17:26.136Z,21.68
2023-03-27T15:20:49.284Z,21.66
2023-03-27T15:24:04.691Z,21.65
2023-03-27T15:26:55.044Z,21.66
2023-03-27T15:29:47.661Z,21.65
2023-03-27T15:32:33.003Z,21.65
2023-03-27T15:35:36.155Z,21.66
2023-03-27T15:45:37.854Z,21.63
2023-03-27T15:47:36.983Z,21.64
2023-03-27T15:53:58.180Z,21.66
2023-03-27T15:56:51.145Z,21.66
2023-03-27T15:59:52.953Z,21.66
2023-03-27T16:05:46.460Z,21.74
2023-03-27T16:08:56.564Z,21.70
2023-03-27T16:12:04.172Z,21.71
2023-03-27T16:15:17.597Z,21.72
2023-03-27T16:18:10.618Z,21.72
2023-03-27T16:20:51.729Z,21.74
2023-03-27T16:27:21.670Z,21.68
2023-03-27T16:29:54.425Z,21.73
2023-03-27T16:33:02.020Z,21.74
2023-03-27T16:35:39.710Z,21.73
2023-03-27T16:42:01.334Z,21.73
2023-03-27T16:51:18.450Z,21.72
2023-03-27T16:54:02.160Z,21.70
2023-03-27T17:03:26.405Z,21.70
2023-03-27T17:09:15.339Z,21.67
2023-03-27T17:12:07.110Z,21.67
2023-03-27T17:15:11.853Z,21.68
2023-03-27T17:18:23.487Z,21.67
2023-03-27T17:20:56.601Z,21.67
2023-03-27T17:26:52.732Z,21.68
2023-03-27T17:29:51.406Z,21.67
2023-03-27T17:35:39.997Z,21.69
2023-03-27T17:38:41.833Z,21.68
2023-03-27T17:41:34.024Z,21.69
2023-03-27T17:44:35.952Z,21.68
2023-03-27T17:46:54.035Z,21.68
2023-03-27T17:49:22.778Z,21.67
2023-03-27T17:51:56.336Z,21.69
2023-03-27T17:54:27.649Z,21.68
2023-03-27T18:10:28.216Z,21.75
2023-03-27T18:13:06.751Z,21.70
2023-03-27T18:15:34.733Z,21.68
2023-03-27T18:18:26.185Z,21.68
2023-03-27T18:20:58.314Z,21.68
2023-03-27T18:23:49.593Z,21.68
2023-03-27T18:26:48.234Z,21.69
2023-03-27T18:36:05.309Z,21.74
2023-03-27T18:48:04.053Z,21.75
2023-03-27T18:51:05.330Z,21.69
2023-03-27T18:57:19.730Z,21.77
2023-03-27T19:00:08.918Z,21.65
2023-03-27T19:03:59.016Z,21.74
2023-03-27T19:06:20.982Z,21.75
2023-03-27T19:11:41.892Z,21.76
2023-03-27T19:14:14.850Z,21.75
2023-03-27T19:16:47.921Z,21.75
2023-03-27T19:19:21.054Z,21.76
2023-03-27T19:21:51.948Z,21.77
2023-03-27T19:24:23.066Z,21.77
2023-03-27T19:27:23.822Z,21.77
2023-03-27T19:30:13.381Z,21.79
2023-03-27T19:33:14.270Z,21.79
2023-03-27T19:36:00.887Z,21.72
2023-03-27T19:39:13.099Z,21.77
2023-03-27T19:42:18.978Z,21.80
2023-03-27T19:45:24.135Z,21.81
2023-03-27T19:47:57.740Z,21.82
2023-03-27T19:51:08.410Z,21.83
2023-03-27T19:54:16.577Z,21.82
2023-03-27T19:57:02.836Z,21.83
2023-03-27T20:09:14.453Z,21.84
2023-03-27T20:12:19.868Z,21.86
2023-03-27T20:15:12.145Z,21.86
2023-03-27T20:21:17.745Z,21.89
2023-03-27T20:27:22.586Z,21.90
2023-03-27T20:33:44.941Z,21.91
2023-03-27T20:36:42.173Z,21.92
2023-03-27T20:42:52.710Z,21.83
2023-03-27T20:45:37.237Z,21.96
2023-03-27T20:48:54.330Z,21.96
2023-03-27T20:51:29.913Z,21.97
2023-03-27T20:54:17.783Z,21.99
2023-03-27T21:00:20.146Z,22.00
2023-03-27T21:03:17.444Z,22.02
2023-03-27T21:06:45.636Z,22.01
2023-03-27T21:09:53.033Z,22.04
2023-03-27T21:16:04.787Z,22.11
2023-03-27T22:24:04.432Z,22.07
2023-03-27T22:26:43.470Z,22.13
2023-03-27T22:29:17.924Z,22.17
2023-03-27T22:32:27.318Z,22.20
2023-03-27T22:35:02.724Z,22.23
2023-03-27T22:40:21.794Z,22.28
2023-03-27T22:42:52.057Z,22.30
2023-03-27T22:45:58.874Z,22.31
2023-03-27T22:48:38.991Z,22.32
2023-03-27T22:51:08.603Z,22.35
2023-03-27T22:53:48.926Z,22.37
2023-03-27T22:56:31.721Z,22.39
2023-03-27T23:02:38.003Z,22.49
2023-03-27T23:04:56.605Z,22.45
2023-03-27T23:07:28.091Z,22.48
2023-03-27T23:10:03.675Z,22.49
2023-03-27T23:12:38.985Z,22.52
2023-03-27T23:15:10.493Z,22.53
2023-03-27T23:20:33.862Z,22.55
2023-03-27T23:23:27.141Z,22.57
2023-03-27T23:26:27.951Z,22.58
2023-03-27T23:29:24.226Z,22.60
2023-03-27T23:32:11.061Z,22.63
2023-03-27T23:34:45.854Z,22.64
2023-03-27T23:37:16.562Z,22.64
2023-03-27T23:39:46.981Z,22.65
2023-03-27T23:42:17.274Z,22.66
2023-03-27T23:44:50.775Z,22.67
2023-03-27T23:47:40.698Z,22.70
2023-03-27T23:56:13.414Z,22.73
